CA-0561 weather

Griffith Island
Ontario, Canada

Public forecast

Using degrees Celsius for public forecast. Weather courtesy of forecast.io.

Closest aviation weather report (METAR) to Griffith Island

Closest report is Wiarton Airport, 10.2 nm (18.8 km) WSW. Retrieved 2019/11/13 01:00 UTC (2 minutes ago):

CYVV 130100Z 34006KT 290V030 15SM FEW020 M08/M13 A3020 RMK SC1 SC TR SLP244

Closest aviation forecast (TAF) to Griffith Island

Closest forecast is Wiarton Airport, 10.2 nm (18.8 km) WSW. Retrieved 2019/11/12 20:00 UTC (5 hours ago):

TAF CYVV 121938Z 1220/1224 33012G22KT P6SM -SN SCT012 BKN025 TEMPO 1220/1224 2SM -SHSN OVC012 PROB30 1220/1224 3/4SM -SHSN VV007 RMK NXT FCST WILL BE ISSUED AT 131145Z